createdAt,value
2023-04-20T00:00:30.613Z,59.75
2023-04-20T00:03:35.367Z,58.75
2023-04-20T00:06:31.889Z,70.33
2023-04-20T00:09:25.893Z,68.33
2023-04-20T00:12:18.350Z,68.00
2023-04-20T00:15:13.470Z,69.00
2023-04-20T00:17:59.431Z,71.00
2023-04-20T00:20:54.554Z,69.67
2023-04-20T00:23:52.122Z,61.00
2023-04-20T00:26:39.010Z,58.50
2023-04-20T00:29:20.282Z,62.25
2023-04-20T00:32:06.312Z,68.50
2023-04-20T00:34:42.316Z,59.00
2023-04-20T00:37:27.203Z,65.33
2023-04-20T00:40:05.312Z,63.25
2023-04-20T00:45:40.852Z,64.75
2023-04-20T00:48:29.008Z,54.50
2023-04-20T00:51:18.623Z,58.25
2023-04-20T00:54:07.544Z,53.50
2023-04-20T00:56:42.800Z,51.00
2023-04-20T01:02:19.223Z,52.50
2023-04-20T01:05:06.229Z,58.25
2023-04-20T01:07:51.194Z,62.75
2023-04-20T01:10:28.546Z,56.00
2023-04-20T01:13:02.490Z,45.00
2023-04-20T01:15:38.320Z,38.75
2023-04-20T01:18:23.968Z,29.75
2023-04-20T01:21:16.801Z,25.25
2023-04-20T01:24:09.900Z,37.50
2023-04-20T01:30:13.587Z,29.75
2023-04-20T01:33:20.111Z,26.75
2023-04-20T01:36:16.709Z,30.00
2023-04-20T01:39:11.304Z,20.00
2023-04-20T01:42:08.887Z,21.25
2023-04-20T01:45:03.657Z,20.00
2023-04-20T01:47:57.294Z,14.75
2023-04-20T01:50:54.090Z,29.25
2023-04-20T01:53:43.836Z,24.50
2023-04-20T01:56:56.669Z,15.25
2023-04-20T01:59:50.463Z,18.75
2023-04-20T02:02:40.358Z,14.00
2023-04-20T02:05:35.237Z,7.50
2023-04-20T02:08:28.383Z,15.00
2023-04-20T02:11:23.566Z,6.00
2023-04-20T02:14:15.166Z,8.50
2023-04-20T02:17:07.807Z,15.00
2023-04-20T02:20:15.806Z,22.00
2023-04-20T02:23:07.512Z,18.00
2023-04-20T02:26:05.139Z,19.75
2023-04-20T02:29:10.929Z,10.50
2023-04-20T02:32:06.312Z,24.50
2023-04-20T02:35:01.084Z,34.75
2023-04-20T02:37:57.316Z,38.25
2023-04-20T02:40:49.289Z,33.25
2023-04-20T02:43:41.644Z,40.50
2023-04-20T02:46:36.143Z,28.75
2023-04-20T02:49:30.259Z,24.25
2023-04-20T02:52:22.241Z,16.75
2023-04-20T02:55:03.595Z,18.50
2023-04-20T02:57:56.644Z,19.00
2023-04-20T03:00:48.440Z,14.75
2023-04-20T03:03:51.069Z,15.75
2023-04-20T03:06:45.066Z,23.50
2023-04-20T03:09:42.129Z,28.75
2023-04-20T03:12:35.901Z,35.00
2023-04-20T03:15:38.678Z,21.00
2023-04-20T03:18:32.776Z,38.50
2023-04-20T03:21:25.263Z,27.00
2023-04-20T03:24:31.296Z,44.25
2023-04-20T03:27:38.561Z,29.50
2023-04-20T03:30:35.146Z,28.25
2023-04-20T03:33:29.011Z,28.00
2023-04-20T03:36:31.651Z,33.25
2023-04-20T03:39:28.007Z,33.50
2023-04-20T03:42:21.417Z,34.00
2023-04-20T03:45:10.445Z,23.25
2023-04-20T03:48:09.222Z,27.75
2023-04-20T03:51:01.787Z,27.25
2023-04-20T03:56:55.089Z,37.75
2023-04-20T03:59:49.240Z,32.25
2023-04-20T04:03:02.431Z,33.50
2023-04-20T04:05:58.542Z,37.75
2023-04-20T04:08:51.322Z,29.00
2023-04-20T04:11:46.045Z,20.00
2023-04-20T04:14:37.740Z,24.75
2023-04-20T04:17:33.137Z,22.50
2023-04-20T04:20:29.384Z,21.50
2023-04-20T04:23:25.977Z,33.75
2023-04-20T04:26:19.411Z,37.75
2023-04-20T04:29:12.225Z,31.75
2023-04-20T04:32:13.879Z,28.25
2023-04-20T04:35:06.832Z,29.75
2023-04-20T04:38:04.713Z,27.75
2023-04-20T04:40:58.397Z,23.75
2023-04-20T04:43:53.874Z,26.75
2023-04-20T04:46:50.672Z,22.75
2023-04-20T04:49:48.955Z,24.75
2023-04-20T04:52:43.492Z,30.50
2023-04-20T04:55:38.296Z,35.75
2023-04-20T04:58:33.603Z,34.50
2023-04-20T05:01:26.897Z,37.00
2023-04-20T05:04:22.652Z,42.50
2023-04-20T05:07:16.659Z,43.25
2023-04-20T05:10:11.673Z,43.00
2023-04-20T05:13:07.734Z,39.00
2023-04-20T05:16:01.548Z,49.75
2023-04-20T05:18:54.034Z,48.75
2023-04-20T05:21:44.886Z,49.50
2023-04-20T05:24:36.920Z,48.25
2023-04-20T05:27:33.730Z,36.25
2023-04-20T05:30:41.350Z,38.75
2023-04-20T05:33:37.176Z,36.75
2023-04-20T05:36:41.617Z,41.25
2023-04-20T05:39:38.153Z,42.25
2023-04-20T05:42:32.330Z,36.25
2023-04-20T05:45:27.345Z,56.50
2023-04-20T05:48:22.415Z,42.25
2023-04-20T05:51:14.025Z,42.00
2023-04-20T05:54:17.767Z,46.25
2023-04-20T05:57:13.362Z,52.25
2023-04-20T06:00:07.757Z,45.25
2023-04-20T06:02:59.218Z,38.00
2023-04-20T06:05:54.524Z,43.50
2023-04-20T06:08:49.437Z,35.50
2023-04-20T06:11:41.391Z,27.75
2023-04-20T06:17:48.266Z,31.00
2023-04-20T06:20:43.086Z,27.50
2023-04-20T06:23:43.174Z,38.25
2023-04-20T06:26:36.548Z,48.00
2023-04-20T06:29:39.874Z,44.25
2023-04-20T06:32:28.695Z,48.75
2023-04-20T06:35:22.859Z,48.25
2023-04-20T06:38:19.389Z,38.00
2023-04-20T06:41:14.404Z,38.00
2023-04-20T06:44:06.719Z,45.25
2023-04-20T06:47:04.109Z,22.25
2023-04-20T06:50:11.162Z,37.00
2023-04-20T06:53:06.573Z,34.25
2023-04-20T06:56:06.192Z,37.50
2023-04-20T06:59:00.138Z,33.75
2023-04-20T07:01:52.359Z,33.50
2023-04-20T07:04:55.022Z,27.00
2023-04-20T07:07:47.204Z,28.00
2023-04-20T07:10:44.190Z,21.00
2023-04-20T07:13:34.126Z,35.25
2023-04-20T07:16:32.772Z,45.75
2023-04-20T07:19:24.519Z,41.75
2023-04-20T07:22:20.895Z,41.25
2023-04-20T07:25:37.372Z,53.00
2023-04-20T07:28:32.893Z,50.75
2023-04-20T07:31:23.349Z,43.75
2023-04-20T07:34:11.925Z,48.50
2023-04-20T07:37:15.323Z,37.25
2023-04-20T07:40:20.109Z,40.25
2023-04-20T07:43:23.507Z,44.50
2023-04-20T07:46:13.057Z,43.75
2023-04-20T07:49:08.590Z,35.50
2023-04-20T07:55:15.116Z,27.75
2023-04-20T07:58:09.677Z,26.75
2023-04-20T08:01:05.398Z,31.25
2023-04-20T08:03:58.567Z,22.75
2023-04-20T08:07:00.785Z,21.75
2023-04-20T08:09:53.874Z,23.50
2023-04-20T08:12:45.609Z,21.25
2023-04-20T08:15:40.378Z,23.25
2023-04-20T08:18:31.684Z,25.75
2023-04-20T08:21:26.229Z,24.75
2023-04-20T08:24:28.390Z,19.25
2023-04-20T08:27:19.571Z,18.75
2023-04-20T08:30:19.506Z,27.00
2023-04-20T08:33:13.876Z,26.75
2023-04-20T08:36:13.663Z,16.75
2023-04-20T08:39:43.573Z,20.50
2023-04-20T08:42:43.753Z,21.00
2023-04-20T08:45:10.792Z,25.25
2023-04-20T17:40:31.409Z,2.75
2023-04-20T17:42:58.398Z,2.00
2023-04-20T17:45:49.172Z,2.50
2023-04-20T17:48:48.988Z,3.25
2023-04-20T17:51:57.374Z,0.50
2023-04-20T17:55:02.567Z,3.00
2023-04-20T17:57:57.351Z,1.50
2023-04-20T18:00:48.206Z,3.00
2023-04-20T18:03:46.450Z,4.00
2023-04-20T18:06:41.247Z,4.00
2023-04-20T18:12:39.170Z,2.25
2023-04-20T18:15:26.067Z,3.00
2023-04-20T18:17:53.005Z,4.00
2023-04-20T18:20:20.085Z,5.75
2023-04-20T18:22:49.382Z,10.25
2023-04-20T18:25:20.699Z,3.00
2023-04-20T18:27:47.653Z,5.00
2023-04-20T18:30:15.217Z,6.00
2023-04-20T18:32:42.731Z,5.25
2023-04-20T18:35:11.423Z,12.25
2023-04-20T18:37:38.634Z,10.00
2023-04-20T18:40:09.944Z,7.00
2023-04-20T18:43:11.134Z,7.00
2023-04-20T18:45:38.065Z,6.00
2023-04-20T18:48:05.418Z,6.50
2023-04-20T18:50:32.398Z,4.00
2023-04-20T18:53:00.835Z,6.00
2023-04-20T18:55:30.653Z,5.00
2023-04-20T18:58:00.714Z,5.75
2023-04-20T19:00:29.545Z,8.50
2023-04-20T19:02:58.552Z,11.75
2023-04-20T19:05:27.825Z,8.50
2023-04-20T19:07:56.662Z,10.25
2023-04-20T19:10:23.755Z,10.00
2023-04-20T19:12:50.790Z,11.00
2023-04-20T19:15:26.992Z,14.00
2023-04-20T19:17:56.157Z,19.50
2023-04-20T19:20:26.518Z,16.75
2023-04-20T19:22:53.440Z,13.50
2023-04-20T19:25:20.722Z,11.50
2023-04-20T19:27:47.695Z,14.25
2023-04-20T19:30:14.752Z,10.75
2023-04-20T19:32:41.729Z,33.50
2023-04-20T19:35:08.770Z,24.00
2023-04-20T19:37:35.780Z,38.75
2023-04-20T19:40:02.804Z,41.50
2023-04-20T19:42:29.767Z,36.25
2023-04-20T19:44:56.778Z,33.75
2023-04-20T19:47:23.919Z,34.75
2023-04-20T19:49:51.032Z,30.00
2023-04-20T19:52:17.984Z,41.25
2023-04-20T19:54:44.874Z,44.00
2023-04-20T19:57:12.012Z,41.50
2023-04-20T19:59:40.329Z,55.25
2023-04-20T20:02:07.780Z,52.00
2023-04-20T20:04:38.036Z,41.50
2023-04-20T20:07:05.180Z,47.75
2023-04-20T20:12:51.192Z,52.50
2023-04-20T20:15:18.120Z,46.00
2023-04-20T20:17:46.783Z,40.75
2023-04-20T20:20:15.574Z,37.50
2023-04-20T20:22:48.372Z,35.25
2023-04-20T20:25:16.205Z,37.25
2023-04-20T20:27:43.179Z,37.25
2023-04-20T20:30:10.860Z,38.75
2023-04-20T20:32:37.826Z,35.50
2023-04-20T20:35:05.670Z,27.50
2023-04-20T20:37:34.995Z,33.75
2023-04-20T20:40:07.098Z,24.75
2023-04-20T20:42:34.415Z,20.50
2023-04-20T20:45:01.381Z,16.75
2023-04-20T20:47:28.375Z,17.25
2023-04-20T20:49:55.273Z,17.75
2023-04-20T20:52:22.377Z,15.25
2023-04-20T20:54:49.294Z,11.75
2023-04-20T20:57:16.166Z,13.00
2023-04-20T20:59:43.255Z,16.50
2023-04-20T21:02:10.447Z,18.00
2023-04-20T21:04:37.455Z,14.50
2023-04-20T21:07:04.372Z,16.75
2023-04-20T21:09:31.335Z,13.50
2023-04-20T21:12:01.254Z,16.25
2023-04-20T21:14:28.313Z,10.50
2023-04-20T21:16:55.350Z,10.00
2023-04-20T21:19:22.449Z,14.50
2023-04-20T21:21:49.387Z,12.25
2023-04-20T21:24:16.483Z,14.25
2023-04-20T21:26:43.401Z,16.25
2023-04-20T21:29:10.356Z,15.00
2023-04-20T21:31:37.304Z,17.75
2023-04-20T21:34:04.276Z,17.50
2023-04-20T21:36:31.149Z,18.50
2023-04-20T21:38:58.064Z,16.50
2023-04-20T21:41:26.880Z,22.75
2023-04-20T21:43:53.806Z,28.00
2023-04-20T21:46:20.785Z,27.00
2023-04-20T21:48:47.947Z,29.00
2023-04-20T21:51:18.853Z,34.00
2023-04-20T21:53:46.127Z,29.75
2023-04-20T21:56:15.068Z,28.00
2023-04-20T21:58:42.128Z,30.25
2023-04-20T22:01:09.103Z,33.50
2023-04-20T22:03:37.547Z,30.50
2023-04-20T22:06:05.267Z,32.00
2023-04-20T22:08:32.296Z,29.25
2023-04-20T22:10:59.350Z,31.50
2023-04-20T22:13:26.480Z,36.00
2023-04-20T22:15:53.533Z,39.75
2023-04-20T22:18:20.572Z,39.00
2023-04-20T22:20:47.631Z,33.25
2023-04-20T22:23:14.593Z,37.00
2023-04-20T22:25:43.096Z,34.25
2023-04-20T22:28:11.444Z,35.50
2023-04-20T22:30:38.404Z,28.50
2023-04-20T22:33:05.456Z,36.25
2023-04-20T22:35:32.350Z,33.25
2023-04-20T22:37:59.637Z,38.75
2023-04-20T22:40:27.288Z,30.00
2023-04-20T22:42:54.241Z,29.25
2023-04-20T22:45:22.144Z,33.25
2023-04-20T22:47:49.113Z,28.25
2023-04-20T22:50:16.395Z,28.00
2023-04-20T22:52:43.438Z,32.25
2023-04-20T22:55:12.032Z,32.50
2023-04-20T22:57:39.388Z,34.25
2023-04-20T23:00:10.713Z,31.00
2023-04-20T23:02:38.072Z,22.25
2023-04-20T23:05:06.127Z,21.75
2023-04-20T23:07:33.608Z,17.75
2023-04-20T23:10:00.709Z,16.50
2023-04-20T23:12:29.691Z,14.25
2023-04-20T23:14:56.915Z,15.00
2023-04-20T23:17:23.891Z,17.25
2023-04-20T23:19:51.207Z,15.75
2023-04-20T23:22:18.430Z,11.75
2023-04-20T23:24:45.288Z,10.00
2023-04-20T23:27:12.244Z,9.00
2023-04-20T23:29:39.103Z,11.25
2023-04-20T23:32:06.253Z,14.00
2023-04-20T23:34:33.210Z,12.00
2023-04-20T23:37:00.124Z,10.75
2023-04-20T23:39:27.040Z,13.50
2023-04-20T23:41:53.926Z,15.00
2023-04-20T23:44:20.979Z,9.25
2023-04-20T23:46:47.866Z,8.50
2023-04-20T23:49:14.724Z,10.75
2023-04-20T23:51:42.270Z,7.00
2023-04-20T23:54:09.183Z,9.25
2023-04-20T23:56:36.025Z,8.50
2023-04-20T23:59:02.982Z,11.00
